Time;durP1;ratioP1;P1;durP2;ratioP2;P2;SDS_P1;SDS_P2;PMS_P1;PMS_P2;Temp;Humidity;BMP_temperature;BMP_pressure;BME280_temperature;BME280_humidity;BME280_pressure;Samples;Min_cycle;Max_cycle;Signal;HPM_P1;HPM_P2
2023/03/24 00:02:05;;;;;;;;;3.00;3.00;;;;;;;;5051999;28;45498;-56
2023/03/24 00:04:31;;;;;;;;;4.00;4.00;;;;;;;;5052955;28;45397;-57
2023/03/24 00:06:57;;;;;;;;;3.67;3.00;;;;;;;;5052202;28;45645;-59
2023/03/24 00:09:22;;;;;;;;;4.00;4.00;;;;;;;;5053150;28;45446;-57
2023/03/24 00:11:49;;;;;;;;;4.00;4.00;;;;;;;;5051935;28;45544;-58
2023/03/24 00:14:15;;;;;;;;;3.00;3.00;;;;;;;;5052099;28;45523;-58
2023/03/24 00:16:41;;;;;;;;;3.67;3.67;;;;;;;;5052521;28;45550;-57
2023/03/24 00:19:08;;;;;;;;;3.00;3.00;;;;;;;;5053499;28;45406;-57
2023/03/24 00:21:33;;;;;;;;;3.67;3.67;;;;;;;;5053570;28;46219;-57
2023/03/24 00:24:00;;;;;;;;;5.00;3.00;;;;;;;;5052335;28;45542;-58
2023/03/24 00:26:27;;;;;;;;;1.67;1.33;;;;;;;;5035153;28;45557;-57
2023/03/24 00:28:53;;;;;;;;;5.00;3.00;;;;;;;;5053171;28;45491;-58
2023/03/24 00:31:18;;;;;;;;;5.33;3.00;;;;;;;;5052122;28;45515;-58
2023/03/24 00:33:47;;;;;;;;;4.00;4.00;;;;;;;;5053062;28;45525;-58
2023/03/24 00:36:12;;;;;;;;;3.67;3.00;;;;;;;;5053274;28;45353;-58
2023/03/24 00:38:38;;;;;;;;;3.00;3.00;;;;;;;;5051898;28;45472;-58
2023/03/24 00:41:04;;;;;;;;;4.00;3.67;;;;;;;;5053055;28;45443;-58
2023/03/24 00:43:30;;;;;;;;;4.00;4.00;;;;;;;;5053044;28;45570;-58
2023/03/24 00:46:00;;;;;;;;;4.00;4.00;;;;;;;;5053114;28;45518;-58
2023/03/24 00:48:26;;;;;;;;;4.33;2.00;;;;;;;;5034818;28;45457;-58
2023/03/24 00:50:53;;;;;;;;;4.67;3.67;;;;;;;;5051979;28;45534;-58
2023/03/24 00:53:18;;;;;;;;;2.33;2.33;;;;;;;;5052863;28;45561;-58
2023/03/24 00:55:46;;;;;;;;;5.33;5.33;;;;;;;;5052821;28;45452;-58
2023/03/24 00:58:17;;;;;;;;;4.67;4.67;;;;;;;;5052729;28;45552;-58
2023/03/24 01:00:46;;;;;;;;;4.00;4.00;;;;;;;;5051045;28;45533;-57
2023/03/24 01:03:11;;;;;;;;;2.00;2.00;;;;;;;;5052006;28;45504;-58
2023/03/24 01:05:37;;;;;;;;;3.33;2.33;;;;;;;;5052814;28;45476;-58
2023/03/24 01:08:03;;;;;;;;;4.00;4.00;;;;;;;;5051944;28;45498;-58
2023/03/24 01:10:29;;;;;;;;;3.00;3.00;;;;;;;;5052574;28;46360;-57
2023/03/24 01:12:55;;;;;;;;;2.67;2.67;;;;;;;;5052156;28;45605;-57
2023/03/24 01:15:23;;;;;;;;;3.33;3.33;;;;;;;;5050703;28;45572;-58
2023/03/24 01:17:48;;;;;;;;;5.00;5.00;;;;;;;;5052611;28;45628;-58
2023/03/24 01:20:15;;;;;;;;;3.00;3.00;;;;;;;;5052578;28;45501;-58
2023/03/24 01:22:43;;;;;;;;;3.00;3.00;;;;;;;;5033804;28;45569;-58
2023/03/24 01:25:16;;;;;;;;;3.00;3.00;;;;;;;;5054995;28;45566;-58
2023/03/24 01:27:42;;;;;;;;;2.00;2.00;;;;;;;;5056045;28;45518;-58
2023/03/24 01:30:08;;;;;;;;;3.00;3.00;;;;;;;;5055046;28;46372;-58
2023/03/24 01:32:35;;;;;;;;;3.33;2.67;;;;;;;;5055569;28;45380;-57
2023/03/24 01:35:00;;;;;;;;;2.00;2.00;;;;;;;;5055913;28;45413;-58
2023/03/24 01:37:26;;;;;;;;;2.67;2.67;;;;;;;;5037158;28;45534;-57
2023/03/24 01:39:52;;;;;;;;;2.00;2.00;;;;;;;;5055763;28;45527;-58
2023/03/24 01:42:19;;;;;;;;;3.00;2.67;;;;;;;;5055773;28;45468;-57
2023/03/24 01:44:46;;;;;;;;;2.67;2.67;;;;;;;;5055723;28;45539;-57
2023/03/24 01:47:13;;;;;;;;;2.67;2.67;;;;;;;;5054703;28;45356;-58
2023/03/24 01:49:44;;;;;;;;;3.00;3.00;;;;;;;;5055807;28;46246;-58
2023/03/24 01:52:13;;;;;;;;;2.00;2.00;;;;;;;;5054717;28;45537;-58
2023/03/24 01:54:46;;;;;;;;;2.00;2.00;;;;;;;;5054887;28;45493;-58
2023/03/24 01:57:30;;;;;;;;;3.00;3.00;;;;;;;;5055406;28;45610;-57
2023/03/24 01:59:57;;;;;;;;;2.00;2.00;;;;;;;;5054426;28;45484;-57
2023/03/24 02:02:24;;;;;;;;;3.00;3.00;;;;;;;;5055116;28;45494;-57
2023/03/24 02:04:52;;;;;;;;;3.33;3.33;;;;;;;;5055477;28;45486;-58
2023/03/24 02:07:56;;;;;;;;;2.00;2.00;;;;;;;;5055317;28;45510;-58
2023/03/24 02:10:23;;;;;;;;;2.33;2.33;;;;;;;;4992096;28;45604;-58
2023/03/24 02:12:48;;;;;;;;;4.00;2.00;;;;;;;;4991581;28;45466;-57
2023/03/24 02:15:14;;;;;;;;;1.33;1.33;;;;;;;;5018534;28;45625;-58
2023/03/24 02:17:39;;;;;;;;;2.00;2.00;;;;;;;;5055034;28;45376;-58
2023/03/24 02:20:09;;;;;;;;;2.67;2.67;;;;;;;;5055004;28;45450;-58
2023/03/24 02:22:37;;;;;;;;;4.00;3.00;;;;;;;;5054907;28;45509;-58
2023/03/24 02:25:16;;;;;;;;;4.67;4.67;;;;;;;;5036883;28;45468;-58
2023/03/24 02:28:00;;;;;;;;;2.00;2.00;;;;;;;;5054582;28;45518;-58
2023/03/24 02:30:45;;;;;;;;;4.67;3.00;;;;;;;;5054251;28;45565;-58
2023/03/24 02:33:29;;;;;;;;;2.67;2.67;;;;;;;;5054280;28;45423;-58
2023/03/24 02:35:57;;;;;;;;;3.00;3.00;;;;;;;;5052706;28;45600;-58
2023/03/24 02:38:37;;;;;;;;;1.33;0.00;;;;;;;;5054118;28;45530;-58
2023/03/24 02:41:21;;;;;;;;;3.67;3.33;;;;;;;;5054792;28;46171;-58
2023/03/24 02:44:05;;;;;;;;;3.00;3.00;;;;;;;;5054541;28;45546;-58
2023/03/24 02:46:40;;;;;;;;;2.33;2.33;;;;;;;;5054568;28;45578;-58
2023/03/24 02:49:15;;;;;;;;;4.33;3.00;;;;;;;;5054632;28;45630;-59
2023/03/24 02:51:59;;;;;;;;;1.67;1.67;;;;;;;;5054467;28;46361;-58
2023/03/24 02:54:30;;;;;;;;;3.33;3.33;;;;;;;;5047914;28;45373;-58
2023/03/24 02:57:00;;;;;;;;;2.00;2.00;;;;;;;;5054738;28;45575;-58
2023/03/24 03:00:08;;;;;;;;;1.67;1.67;;;;;;;;5054595;28;45535;-58
2023/03/24 03:02:35;;;;;;;;;3.00;2.67;;;;;;;;4991812;28;45567;-58
2023/03/24 03:05:04;;;;;;;;;2.00;2.00;;;;;;;;4974828;28;45418;-57
2023/03/24 03:07:32;;;;;;;;;2.00;2.00;;;;;;;;5023782;28;45528;-58
2023/03/24 03:10:06;;;;;;;;;2.00;1.00;;;;;;;;5054145;28;45470;-58
2023/03/24 03:12:34;;;;;;;;;1.00;1.00;;;;;;;;5053869;28;45478;-57
2023/03/24 03:15:02;;;;;;;;;2.00;2.00;;;;;;;;5053342;28;45482;-57
2023/03/24 03:17:31;;;;;;;;;3.67;1.67;;;;;;;;5035918;28;45573;-57
2023/03/24 03:20:01;;;;;;;;;2.00;2.00;;;;;;;;5053333;28;45483;-58
2023/03/24 03:22:29;;;;;;;;;2.00;2.00;;;;;;;;5053997;28;45552;-59
2023/03/24 03:24:56;;;;;;;;;1.00;1.00;;;;;;;;5036079;28;45364;-58
2023/03/24 03:27:21;;;;;;;;;2.33;1.00;;;;;;;;5053433;28;45632;-59
2023/03/24 03:29:50;;;;;;;;;2.00;1.00;;;;;;;;5053017;28;45673;-58
2023/03/24 03:32:23;;;;;;;;;1.00;1.00;;;;;;;;5053438;28;46330;-57
2023/03/24 03:34:56;;;;;;;;;1.00;1.00;;;;;;;;5054065;28;45495;-58
2023/03/24 03:37:37;;;;;;;;;1.00;1.00;;;;;;;;5035694;28;45470;-57
2023/03/24 03:40:08;;;;;;;;;0.33;0.33;;;;;;;;5053841;28;45469;-57
2023/03/24 03:42:33;;;;;;;;;1.00;1.00;;;;;;;;5053800;28;45491;-58
2023/03/24 03:44:59;;;;;;;;;1.00;1.00;;;;;;;;5052961;28;45577;-58
2023/03/24 03:47:24;;;;;;;;;1.00;1.00;;;;;;;;5053613;28;45463;-58
2023/03/24 03:49:50;;;;;;;;;3.00;1.00;;;;;;;;5054231;28;45528;-58
2023/03/24 03:52:15;;;;;;;;;1.00;1.00;;;;;;;;5053760;28;46168;-57
2023/03/24 03:54:42;;;;;;;;;2.00;1.00;;;;;;;;5052640;28;45613;-56
2023/03/24 03:57:07;;;;;;;;;0.67;0.67;;;;;;;;5053752;28;45530;-55
2023/03/24 03:59:35;;;;;;;;;2.33;1.00;;;;;;;;5053745;28;45538;-58
2023/03/24 04:02:06;;;;;;;;;0.33;0.33;;;;;;;;5051518;28;46190;-58
2023/03/24 04:04:36;;;;;;;;;1.33;1.00;;;;;;;;5053570;28;45539;-58
2023/03/24 04:07:29;;;;;;;;;1.00;0.67;;;;;;;;5053562;28;45490;-57
2023/03/24 04:10:13;;;;;;;;;1.00;1.00;;;;;;;;5050458;28;45518;-57
2023/03/24 04:12:57;;;;;;;;;2.00;0.33;;;;;;;;5053113;28;46166;-58
2023/03/24 04:15:31;;;;;;;;;1.00;1.00;;;;;;;;5039804;28;45527;-58
2023/03/24 04:18:09;;;;;;;;;2.33;1.00;;;;;;;;5052825;28;45467;-58
2023/03/24 04:20:49;;;;;;;;;1.00;1.00;;;;;;;;5044559;28;45420;-58
2023/03/24 04:23:25;;;;;;;;;1.00;1.00;;;;;;;;5052718;28;45520;-57
2023/03/24 04:26:00;;;;;;;;;1.00;1.00;;;;;;;;5053172;28;45518;-58
2023/03/24 04:28:36;;;;;;;;;2.00;1.00;;;;;;;;5034549;28;45573;-58
2023/03/24 04:31:22;;;;;;;;;0.00;0.00;;;;;;;;5052926;28;45550;-58
2023/03/24 04:33:52;;;;;;;;;3.67;1.00;;;;;;;;5053017;28;45571;-58
2023/03/24 04:36:18;;;;;;;;;0.67;0.67;;;;;;;;5053103;28;45474;-57
2023/03/24 04:38:49;;;;;;;;;1.00;1.00;;;;;;;;5053357;28;45498;-59
2023/03/24 04:41:16;;;;;;;;;1.00;1.00;;;;;;;;5053117;28;45622;-58
2023/03/24 04:43:43;;;;;;;;;0.00;0.00;;;;;;;;5052049;28;45999;-58
2023/03/24 04:46:08;;;;;;;;;1.67;1.00;;;;;;;;5052895;28;45553;-58
2023/03/24 04:48:34;;;;;;;;;2.00;2.00;;;;;;;;5035361;28;45557;-57
2023/03/24 04:51:00;;;;;;;;;1.00;1.00;;;;;;;;5052755;28;45472;-57
2023/03/24 04:53:26;;;;;;;;;1.00;0.67;;;;;;;;5052214;28;45578;-58
2023/03/24 04:56:05;;;;;;;;;1.00;1.00;;;;;;;;5052855;28;45483;-57
2023/03/24 04:58:30;;;;;;;;;1.00;1.00;;;;;;;;5034943;28;45480;-57
2023/03/24 05:00:57;;;;;;;;;1.00;1.00;;;;;;;;5056334;28;45543;-57
2023/03/24 05:03:23;;;;;;;;;0.67;0.67;;;;;;;;5056261;28;46162;-58
2023/03/24 05:05:48;;;;;;;;;2.00;2.00;;;;;;;;5055133;28;45498;-58
2023/03/24 05:08:15;;;;;;;;;1.67;1.33;;;;;;;;5042873;28;45552;-57
2023/03/24 05:10:40;;;;;;;;;0.00;0.00;;;;;;;;5056388;28;45467;-57
2023/03/24 05:13:06;;;;;;;;;0.00;0.00;;;;;;;;5055615;28;45601;-57
2023/03/24 05:15:31;;;;;;;;;1.33;1.00;;;;;;;;5056084;28;45542;-56
2023/03/24 05:17:57;;;;;;;;;2.00;1.00;;;;;;;;5055843;28;45552;-57
2023/03/24 05:20:22;;;;;;;;;1.33;1.00;;;;;;;;5036626;28;45718;-56
2023/03/24 05:22:48;;;;;;;;;1.67;0.00;;;;;;;;5055874;28;46376;-57
2023/03/24 05:25:14;;;;;;;;;0.00;0.00;;;;;;;;5055911;28;45467;-55
2023/03/24 05:27:40;;;;;;;;;1.33;1.33;;;;;;;;5056242;28;45531;-57
2023/03/24 05:30:05;;;;;;;;;2.33;1.00;;;;;;;;5037608;28;45517;-57
2023/03/24 05:32:31;;;;;;;;;0.33;0.33;;;;;;;;5054469;28;45644;-57
2023/03/24 05:34:56;;;;;;;;;1.33;1.00;;;;;;;;5055896;28;45499;-57
2023/03/24 05:37:21;;;;;;;;;0.00;0.00;;;;;;;;5055711;28;45435;-57
2023/03/24 05:39:46;;;;;;;;;1.00;1.00;;;;;;;;5049559;28;45635;-58
2023/03/24 05:42:11;;;;;;;;;3.67;1.33;;;;;;;;5051820;28;45618;-57
2023/03/24 05:44:37;;;;;;;;;1.00;1.00;;;;;;;;5055560;28;45443;-58
2023/03/24 05:47:02;;;;;;;;;3.00;2.00;;;;;;;;5055401;28;45446;-58
2023/03/24 05:49:28;;;;;;;;;3.00;1.33;;;;;;;;5037168;28;45577;-57
2023/03/24 05:51:54;;;;;;;;;0.00;0.00;;;;;;;;5055432;28;45623;-58
2023/03/24 05:54:20;;;;;;;;;2.00;0.67;;;;;;;;5054064;28;45499;-58
2023/03/24 05:56:46;;;;;;;;;2.00;1.00;;;;;;;;5053860;28;45586;-57
2023/03/24 05:59:11;;;;;;;;;1.67;1.67;;;;;;;;5047367;28;45732;-56
2023/03/24 06:01:36;;;;;;;;;0.67;0.67;;;;;;;;5055137;28;45483;-58
2023/03/24 06:04:01;;;;;;;;;1.00;1.00;;;;;;;;5057251;27;45458;-58
2023/03/24 06:06:27;;;;;;;;;1.00;1.00;;;;;;;;5066402;27;45531;-57
2023/03/24 06:08:53;;;;;;;;;1.00;1.00;;;;;;;;5044968;28;45670;-57
2023/03/24 06:11:18;;;;;;;;;2.00;2.00;;;;;;;;5053037;28;45447;-58
2023/03/24 06:13:43;;;;;;;;;1.00;1.00;;;;;;;;5055089;28;45486;-57
2023/03/24 06:16:09;;;;;;;;;2.00;1.00;;;;;;;;5054589;28;45608;-57
2023/03/24 06:18:34;;;;;;;;;1.00;1.00;;;;;;;;5054607;28;45609;-57
2023/03/24 06:20:59;;;;;;;;;2.33;1.00;;;;;;;;5036823;28;45955;-57
2023/03/24 06:23:26;;;;;;;;;3.00;2.00;;;;;;;;5054943;28;45708;-57
2023/03/24 06:25:57;;;;;;;;;0.00;0.00;;;;;;;;5055221;28;45525;-57
2023/03/24 06:28:24;;;;;;;;;0.33;0.33;;;;;;;;5054161;28;45427;-58
2023/03/24 06:30:50;;;;;;;;;3.33;1.00;;;;;;;;5053664;28;47160;-58
2023/03/24 06:33:15;;;;;;;;;1.00;1.00;;;;;;;;5053433;28;45379;-58
2023/03/24 06:35:40;;;;;;;;;3.33;0.33;;;;;;;;5053487;28;45557;-58
2023/03/24 06:38:06;;;;;;;;;3.00;2.00;;;;;;;;5053425;28;45609;-59
2023/03/24 06:40:31;;;;;;;;;0.67;0.67;;;;;;;;5054404;28;46026;-59
2023/03/24 06:42:57;;;;;;;;;2.00;1.00;;;;;;;;5054470;28;45554;-59
2023/03/24 06:45:22;;;;;;;;;5.00;1.00;;;;;;;;5053531;28;45458;-58
2023/03/24 06:47:47;;;;;;;;;3.00;1.00;;;;;;;;5054267;28;45535;-61
2023/03/24 06:50:12;;;;;;;;;0.67;0.67;;;;;;;;5052143;28;45510;-61
2023/03/24 06:52:38;;;;;;;;;1.67;1.67;;;;;;;;5048977;28;45558;-62
2023/03/24 06:55:03;;;;;;;;;0.67;0.67;;;;;;;;5054369;28;45478;-60
2023/03/24 06:57:29;;;;;;;;;1.33;1.00;;;;;;;;5054013;28;45527;-58
2023/03/24 06:59:54;;;;;;;;;5.00;2.67;;;;;;;;5052475;28;47030;-57
2023/03/24 07:02:19;;;;;;;;;1.00;1.00;;;;;;;;5053184;28;45431;-58
2023/03/24 07:04:45;;;;;;;;;2.00;2.00;;;;;;;;5053661;28;45541;-58
2023/03/24 07:07:11;;;;;;;;;2.00;1.00;;;;;;;;5051399;28;45658;-58
2023/03/24 07:09:37;;;;;;;;;3.33;0.00;;;;;;;;5050840;28;45943;-56
2023/03/24 07:12:03;;;;;;;;;1.00;1.00;;;;;;;;5054500;28;45525;-58
2023/03/24 07:14:28;;;;;;;;;0.67;0.67;;;;;;;;5035326;28;45456;-58
2023/03/24 07:16:53;;;;;;;;;1.67;1.67;;;;;;;;5053908;28;45944;-58
2023/03/24 07:19:19;;;;;;;;;3.00;1.67;;;;;;;;5053381;28;45975;-58
2023/03/24 07:21:48;;;;;;;;;1.00;1.00;;;;;;;;5052297;28;45563;-56
2023/03/24 07:24:13;;;;;;;;;1.00;1.00;;;;;;;;5053260;28;45470;-58
2023/03/24 07:26:39;;;;;;;;;2.00;1.00;;;;;;;;5053252;28;45562;-58
2023/03/24 07:29:04;;;;;;;;;1.00;1.00;;;;;;;;5052933;28;45520;-58
2023/03/24 07:31:31;;;;;;;;;1.00;1.00;;;;;;;;5053075;28;45628;-58
2023/03/24 07:33:56;;;;;;;;;1.00;1.00;;;;;;;;5053117;28;45681;-57
2023/03/24 07:36:21;;;;;;;;;0.67;0.33;;;;;;;;5052962;28;46190;-58
2023/03/24 07:38:47;;;;;;;;;1.00;1.00;;;;;;;;5052462;28;46042;-58
2023/03/24 07:41:12;;;;;;;;;2.67;2.00;;;;;;;;5053269;28;45498;-57
2023/03/24 07:43:38;;;;;;;;;2.00;1.00;;;;;;;;5053002;28;45571;-57
2023/03/24 07:46:03;;;;;;;;;1.33;1.33;;;;;;;;5053122;28;45483;-58
2023/03/24 07:48:28;;;;;;;;;1.00;0.00;;;;;;;;5053002;28;45532;-58
2023/03/24 07:50:53;;;;;;;;;4.33;3.33;;;;;;;;5052904;28;45523;-58
2023/03/24 07:53:18;;;;;;;;;1.00;1.00;;;;;;;;5053296;28;45474;-58
2023/03/24 07:55:44;;;;;;;;;2.33;2.33;;;;;;;;5052734;28;45581;-58
2023/03/24 07:58:09;;;;;;;;;4.00;2.67;;;;;;;;5052928;28;46140;-58
2023/03/24 08:00:36;;;;;;;;;1.00;1.00;;;;;;;;5052977;28;45459;-58
2023/03/24 08:03:02;;;;;;;;;2.33;2.00;;;;;;;;5053013;28;45415;-59
2023/03/24 08:05:28;;;;;;;;;4.00;2.50;;;;;;;;5052989;28;45432;-58
2023/03/24 08:07:54;;;;;;;;;5.67;2.67;;;;;;;;5052392;28;45556;-59
2023/03/24 08:10:21;;;;;;;;;3.67;2.00;;;;;;;;5052741;28;45536;-59
2023/03/24 08:12:47;;;;;;;;;4.67;2.67;;;;;;;;5052698;28;45461;-58
2023/03/24 08:15:13;;;;;;;;;3.33;2.00;;;;;;;;5052651;28;45391;-58
2023/03/24 08:17:39;;;;;;;;;4.67;2.00;;;;;;;;5034196;28;47181;-58
2023/03/24 08:20:10;;;;;;;;;2.00;2.00;;;;;;;;5052475;28;45467;-59
2023/03/24 08:22:36;;;;;;;;;3.00;2.00;;;;;;;;5052401;28;45565;-59
2023/03/24 08:25:01;;;;;;;;;3.67;2.00;;;;;;;;5052402;28;45489;-59
2023/03/24 08:27:27;;;;;;;;;2.00;2.00;;;;;;;;5052447;28;45511;-59
2023/03/24 08:29:52;;;;;;;;;4.33;2.00;;;;;;;;5052436;28;45577;-59
2023/03/24 08:32:17;;;;;;;;;2.00;2.00;;;;;;;;5052359;28;45518;-59
2023/03/24 08:34:42;;;;;;;;;1.67;0.67;;;;;;;;5054581;28;45499;-59
2023/03/24 08:37:07;;;;;;;;;3.00;2.00;;;;;;;;5038006;28;45363;-59
2023/03/24 08:39:34;;;;;;;;;1.00;1.00;;;;;;;;5056084;28;45486;-58
2023/03/24 08:41:59;;;;;;;;;3.67;1.00;;;;;;;;5056100;28;45510;-59
2023/03/24 08:44:25;;;;;;;;;5.00;3.67;;;;;;;;5056080;28;45594;-58
2023/03/24 08:46:50;;;;;;;;;3.00;3.00;;;;;;;;5037671;28;47968;-59
2023/03/24 08:49:16;;;;;;;;;2.00;2.00;;;;;;;;5055443;28;45495;-59
2023/03/24 08:51:42;;;;;;;;;1.00;0.67;;;;;;;;5055802;28;45467;-58
2023/03/24 08:54:08;;;;;;;;;3.00;3.00;;;;;;;;5055870;28;45584;-59
2023/03/24 08:56:33;;;;;;;;;5.00;3.00;;;;;;;;5055722;28;45545;-59
2023/03/24 08:58:58;;;;;;;;;3.67;2.00;;;;;;;;5055133;28;45452;-59
2023/03/24 09:01:23;;;;;;;;;3.00;1.00;;;;;;;;5055808;28;45459;-59
2023/03/24 09:03:49;;;;;;;;;2.00;2.00;;;;;;;;5055410;28;45530;-59
2023/03/24 09:06:14;;;;;;;;;3.00;3.00;;;;;;;;5055212;28;45510;-59
2023/03/24 09:08:40;;;;;;;;;5.67;1.00;;;;;;;;5055467;28;45608;-59
2023/03/24 09:11:05;;;;;;;;;0.00;0.00;;;;;;;;5055491;28;45582;-59
2023/03/24 09:13:31;;;;;;;;;3.67;2.00;;;;;;;;5055663;28;45557;-58
2023/03/24 09:15:58;;;;;;;;;1.00;1.00;;;;;;;;5055247;28;46271;-59
2023/03/24 09:18:23;;;;;;;;;2.33;1.00;;;;;;;;5055411;28;45605;-59
2023/03/24 09:20:49;;;;;;;;;0.00;0.00;;;;;;;;5055578;28;45498;-59
2023/03/24 09:23:14;;;;;;;;;1.00;1.00;;;;;;;;5055086;28;45602;-59
2023/03/24 09:25:39;;;;;;;;;1.00;1.00;;;;;;;;5055364;28;45943;-59
2023/03/24 09:28:05;;;;;;;;;4.00;3.00;;;;;;;;5054977;28;45502;-59
2023/03/24 09:30:31;;;;;;;;;5.00;2.33;;;;;;;;5055040;28;45546;-59
2023/03/24 09:32:57;;;;;;;;;1.67;1.00;;;;;;;;5055115;28;45585;-59
2023/03/24 09:35:23;;;;;;;;;4.33;2.00;;;;;;;;5054964;28;45427;-59
2023/03/24 09:37:48;;;;;;;;;1.33;1.33;;;;;;;;5054969;28;45501;-59
2023/03/24 09:40:24;;;;;;;;;4.00;1.33;;;;;;;;5054845;28;45510;-59
2023/03/24 09:42:52;;;;;;;;;1.33;1.00;;;;;;;;5055317;28;45508;-59
2023/03/24 09:45:20;;;;;;;;;0.00;0.00;;;;;;;;5054293;28;46932;-58
2023/03/24 09:47:48;;;;;;;;;1.00;1.00;;;;;;;;5054980;28;45488;-59
2023/03/24 09:50:19;;;;;;;;;1.33;0.00;;;;;;;;5054757;28;45511;-58
2023/03/24 09:52:47;;;;;;;;;2.00;2.00;;;;;;;;5054559;28;45584;-58
2023/03/24 09:55:16;;;;;;;;;0.00;0.00;;;;;;;;5054751;28;45486;-58
2023/03/24 09:57:43;;;;;;;;;5.00;3.33;;;;;;;;5054850;28;45497;-59
2023/03/24 10:00:19;;;;;;;;;1.67;1.67;;;;;;;;5036751;28;45381;-59
2023/03/24 10:02:44;;;;;;;;;3.33;2.00;;;;;;;;5054813;28;45748;-59
2023/03/24 10:05:17;;;;;;;;;2.67;2.00;;;;;;;;5054555;28;45479;-59
2023/03/24 10:07:48;;;;;;;;;2.00;1.00;;;;;;;;5054360;28;45497;-59
2023/03/24 10:10:28;;;;;;;;;0.33;0.33;;;;;;;;5054824;28;46008;-59
2023/03/24 10:12:55;;;;;;;;;1.00;1.00;;;;;;;;5054251;28;45591;-59
2023/03/24 10:15:43;;;;;;;;;3.00;1.00;;;;;;;;5054375;28;45623;-59
2023/03/24 10:18:11;;;;;;;;;1.67;1.67;;;;;;;;5054240;28;45516;-59
2023/03/24 10:20:55;;;;;;;;;1.00;1.00;;;;;;;;5054477;28;45490;-59
2023/03/24 10:23:21;;;;;;;;;1.00;1.00;;;;;;;;5054075;28;45520;-59
2023/03/24 10:26:05;;;;;;;;;2.00;1.67;;;;;;;;5054306;28;45989;-59
2023/03/24 10:28:37;;;;;;;;;7.33;6.00;;;;;;;;5053949;28;45638;-59
2023/03/24 10:31:08;;;;;;;;;1.33;1.33;;;;;;;;5054378;28;45490;-58
2023/03/24 10:33:37;;;;;;;;;2.67;1.00;;;;;;;;5054025;28;45494;-59
2023/03/24 10:36:08;;;;;;;;;1.33;1.33;;;;;;;;5054042;28;45991;-58
2023/03/24 10:38:34;;;;;;;;;1.67;1.00;;;;;;;;5053948;28;45445;-58
2023/03/24 10:41:00;;;;;;;;;2.00;2.00;;;;;;;;5054060;28;45499;-58
2023/03/24 10:43:26;;;;;;;;;1.67;1.33;;;;;;;;5054260;28;45439;-59
2023/03/24 10:45:52;;;;;;;;;2.33;2.33;;;;;;;;5053702;28;45462;-59
2023/03/24 10:48:36;;;;;;;;;1.33;1.00;;;;;;;;5053666;28;45514;-58
2023/03/24 10:51:01;;;;;;;;;4.00;3.00;;;;;;;;5053689;28;45515;-58
2023/03/24 10:53:27;;;;;;;;;2.00;1.00;;;;;;;;5053940;28;45456;-59
2023/03/24 10:55:52;;;;;;;;;2.33;0.67;;;;;;;;5053359;28;46128;-58
2023/03/24 10:58:27;;;;;;;;;1.00;1.00;;;;;;;;5053109;28;45510;-58
2023/03/24 11:00:53;;;;;;;;;1.67;1.33;;;;;;;;5053763;28;45482;-59
2023/03/24 11:03:25;;;;;;;;;1.00;1.00;;;;;;;;5053540;28;45564;-59
2023/03/24 11:05:56;;;;;;;;;3.67;2.00;;;;;;;;5035428;28;47254;-59
2023/03/24 11:08:21;;;;;;;;;3.00;1.00;;;;;;;;5053296;28;45497;-58
2023/03/24 11:10:47;;;;;;;;;1.67;1.67;;;;;;;;5053251;28;45720;-58
2023/03/24 11:13:20;;;;;;;;;3.33;2.67;;;;;;;;5052967;28;46028;-58
2023/03/24 11:15:52;;;;;;;;;1.33;1.33;;;;;;;;5035240;28;46198;-58
2023/03/24 11:18:19;;;;;;;;;4.33;2.00;;;;;;;;5034938;28;45504;-58
2023/03/24 11:20:49;;;;;;;;;1.00;1.00;;;;;;;;5053072;28;45475;-58
2023/03/24 11:23:31;;;;;;;;;3.00;3.00;;;;;;;;5034858;28;45525;-58
2023/03/24 11:26:06;;;;;;;;;2.00;1.00;;;;;;;;5052938;28;45519;-58
2023/03/24 11:28:35;;;;;;;;;2.00;2.00;;;;;;;;5052775;28;45560;-58
2023/03/24 11:31:05;;;;;;;;;5.00;5.00;;;;;;;;5053264;28;45460;-58
2023/03/24 11:33:33;;;;;;;;;3.00;1.33;;;;;;;;5053015;28;45637;-58
2023/03/24 11:36:00;;;;;;;;;1.00;1.00;;;;;;;;5052722;28;46369;-58
2023/03/24 11:38:33;;;;;;;;;0.00;0.00;;;;;;;;5052828;28;45643;-58
2023/03/24 11:41:01;;;;;;;;;4.00;4.00;;;;;;;;5039328;28;45575;-57
2023/03/24 11:43:27;;;;;;;;;1.00;1.00;;;;;;;;5052772;28;45412;-58
2023/03/24 11:45:58;;;;;;;;;2.00;2.00;;;;;;;;5052560;28;46030;-57
2023/03/24 11:48:37;;;;;;;;;2.33;2.33;;;;;;;;5052831;28;45486;-58
2023/03/24 11:51:03;;;;;;;;;2.33;1.00;;;;;;;;5052708;28;45597;-58
2023/03/24 11:53:41;;;;;;;;;1.67;1.00;;;;;;;;5052874;28;45621;-58
2023/03/24 11:56:18;;;;;;;;;4.00;2.33;;;;;;;;5052684;28;46332;-59
2023/03/24 11:58:52;;;;;;;;;1.33;1.00;;;;;;;;5052419;28;45449;-58
2023/03/24 12:01:20;;;;;;;;;1.00;1.00;;;;;;;;5052755;28;45499;-58
2023/03/24 12:03:54;;;;;;;;;3.00;2.00;;;;;;;;5052583;28;45681;-58
2023/03/24 12:06:26;;;;;;;;;3.67;2.67;;;;;;;;5052225;28;45541;-58
2023/03/24 12:09:03;;;;;;;;;0.33;0.33;;;;;;;;5052586;28;45518;-58
2023/03/24 12:11:47;;;;;;;;;1.00;1.00;;;;;;;;5051319;28;45649;-58
2023/03/24 12:14:18;;;;;;;;;2.33;1.00;;;;;;;;5046267;28;46046;-58
2023/03/24 12:17:03;;;;;;;;;0.00;0.00;;;;;;;;5049251;28;46322;-58
2023/03/24 12:19:47;;;;;;;;;1.00;0.00;;;;;;;;5052310;28;45464;-57
2023/03/24 12:22:16;;;;;;;;;0.00;0.00;;;;;;;;5047963;28;45467;-57
2023/03/24 12:24:53;;;;;;;;;0.33;0.00;;;;;;;;5032292;28;45470;-58
2023/03/24 12:27:36;;;;;;;;;0.00;0.00;;;;;;;;5053633;28;45470;-58
2023/03/24 12:30:11;;;;;;;;;3.00;0.33;;;;;;;;5053023;28;45598;-58
2023/03/24 12:32:46;;;;;;;;;1.33;1.00;;;;;;;;5053130;28;45550;-59
2023/03/24 12:35:23;;;;;;;;;2.67;0.00;;;;;;;;5034765;28;46108;-57
2023/03/24 12:37:55;;;;;;;;;0.00;0.00;;;;;;;;5050759;28;46151;-57
2023/03/24 12:40:23;;;;;;;;;2.00;2.00;;;;;;;;5050862;28;45571;-57
2023/03/24 12:42:55;;;;;;;;;2.00;1.00;;;;;;;;5042829;28;45474;-57
2023/03/24 12:45:25;;;;;;;;;1.00;1.00;;;;;;;;5030450;28;45580;-57
2023/03/24 12:47:53;;;;;;;;;2.67;2.67;;;;;;;;5053296;28;45439;-57
2023/03/24 12:50:24;;;;;;;;;5.33;5.33;;;;;;;;5053566;28;45472;-57
2023/03/24 12:53:08;;;;;;;;;1.00;1.00;;;;;;;;5021289;28;45439;-57
2023/03/24 12:55:34;;;;;;;;;0.67;0.33;;;;;;;;5052974;28;45373;-58
2023/03/24 12:58:19;;;;;;;;;3.33;2.67;;;;;;;;5052866;28;45941;-58
2023/03/24 13:01:06;;;;;;;;;3.00;2.00;;;;;;;;5021224;28;45564;-57
2023/03/24 13:03:54;;;;;;;;;2.00;1.00;;;;;;;;5053039;28;45566;-58
2023/03/24 13:06:25;;;;;;;;;1.67;1.67;;;;;;;;5044041;28;45534;-58
2023/03/24 13:09:03;;;;;;;;;0.00;0.00;;;;;;;;5052077;28;45508;-58
2023/03/24 13:11:44;;;;;;;;;0.67;0.00;;;;;;;;5051862;28;45495;-58
2023/03/24 13:14:12;;;;;;;;;0.00;0.00;;;;;;;;5053217;28;45509;-58
2023/03/24 13:16:38;;;;;;;;;1.00;0.00;;;;;;;;5053030;28;45542;-58
2023/03/24 13:19:13;;;;;;;;;3.67;2.33;;;;;;;;5052770;28;46261;-58
2023/03/24 13:21:38;;;;;;;;;1.00;1.00;;;;;;;;5037502;28;45554;-58
2023/03/24 13:24:07;;;;;;;;;1.00;0.00;;;;;;;;5056302;28;45491;-58
2023/03/24 13:26:42;;;;;;;;;0.00;0.00;;;;;;;;5056596;28;45451;-58
2023/03/24 13:29:27;;;;;;;;;0.00;0.00;;;;;;;;5042778;28;45395;-58
2023/03/24 13:32:16;;;;;;;;;0.00;0.00;;;;;;;;5055325;28;45562;-58
2023/03/24 13:34:47;;;;;;;;;0.00;0.00;;;;;;;;5056357;28;45436;-57
2023/03/24 13:37:15;;;;;;;;;2.00;1.00;;;;;;;;5056078;28;45479;-58
2023/03/24 13:39:43;;;;;;;;;2.00;2.00;;;;;;;;5055919;28;46119;-58
2023/03/24 13:42:27;;;;;;;;;0.00;0.00;;;;;;;;5055699;28;45467;-57
2023/03/24 13:44:52;;;;;;;;;0.00;0.00;;;;;;;;5056109;28;45504;-58
2023/03/24 13:47:18;;;;;;;;;1.67;1.00;;;;;;;;5055708;28;45423;-57
2023/03/24 13:50:00;;;;;;;;;1.00;1.00;;;;;;;;5055634;28;47337;-58
2023/03/24 13:52:25;;;;;;;;;1.00;1.00;;;;;;;;5055909;28;45482;-57
2023/03/24 13:54:54;;;;;;;;;2.00;1.67;;;;;;;;5055817;28;45519;-57
2023/03/24 13:57:22;;;;;;;;;2.33;1.33;;;;;;;;5055658;28;45580;-58
2023/03/24 14:00:00;;;;;;;;;1.67;1.67;;;;;;;;5055449;28;45610;-58
2023/03/24 14:02:28;;;;;;;;;5.00;2.00;;;;;;;;5055427;28;45380;-57
2023/03/24 14:04:54;;;;;;;;;1.00;1.00;;;;;;;;5055658;28;45576;-57
2023/03/24 14:07:43;;;;;;;;;1.67;1.00;;;;;;;;5055555;28;45456;-58
2023/03/24 14:10:14;;;;;;;;;1.00;1.00;;;;;;;;5047257;28;46198;-57
2023/03/24 14:12:51;;;;;;;;;0.00;0.00;;;;;;;;5055403;28;45569;-57
2023/03/24 14:15:18;;;;;;;;;1.00;0.00;;;;;;;;5055491;28;45499;-57
2023/03/24 14:17:46;;;;;;;;;0.00;0.00;;;;;;;;5055505;28;45492;-57
2023/03/24 14:20:12;;;;;;;;;2.00;0.00;;;;;;;;5055163;28;45437;-57
2023/03/24 14:22:45;;;;;;;;;1.00;1.00;;;;;;;;5054516;28;45514;-57
2023/03/24 14:25:14;;;;;;;;;0.00;0.00;;;;;;;;5055389;28;45531;-57
2023/03/24 14:27:41;;;;;;;;;1.00;1.00;;;;;;;;5055362;28;45581;-58
2023/03/24 14:30:09;;;;;;;;;1.00;1.00;;;;;;;;5054724;28;45558;-57
2023/03/24 14:32:39;;;;;;;;;0.00;0.00;;;;;;;;5054073;28;45514;-57
2023/03/24 14:35:17;;;;;;;;;1.00;1.00;;;;;;;;5055354;28;45533;-57
2023/03/24 14:37:51;;;;;;;;;1.67;1.67;;;;;;;;5055330;28;45525;-57
2023/03/24 14:40:28;;;;;;;;;0.00;0.00;;;;;;;;5054886;28;46205;-58
2023/03/24 14:42:55;;;;;;;;;2.33;2.33;;;;;;;;5055040;28;45617;-58
2023/03/24 14:45:40;;;;;;;;;0.00;0.00;;;;;;;;5055037;28;45473;-59
2023/03/24 14:48:20;;;;;;;;;1.00;1.00;;;;;;;;5055041;28;45657;-59
2023/03/24 14:50:45;;;;;;;;;0.67;0.67;;;;;;;;5054643;28;45489;-59
2023/03/24 14:53:16;;;;;;;;;1.00;1.00;;;;;;;;5055109;28;45431;-59
2023/03/24 14:55:42;;;;;;;;;0.33;0.33;;;;;;;;5055109;28;45498;-59
2023/03/24 14:58:19;;;;;;;;;0.00;0.00;;;;;;;;5054886;28;45416;-60